Time;durP1;ratioP1;P1;durP2;ratioP2;P2;SDS_P1;SDS_P2;PMS_P1;PMS_P2;Temp;Humidity;BMP_temperature;BMP_pressure;BME280_temperature;BME280_humidity;BME280_pressure;Samples;Min_cycle;Max_cycle;Signal;HPM_P1;HPM_P2
2021/06/19 00:01:59;;;;;;;;;;;;;;;20.50;61.98;100357.47;5119887;28;970;-47
2021/06/19 00:04:25;;;;;;;;;;;;;;;20.57;61.94;100353.50;5102099;28;1375;-49
2021/06/19 00:06:50;;;;;;;;;;;;;;;20.67;61.89;100356.84;5120328;28;1984;-47
2021/06/19 00:09:16;;;;;;;;;;;;;;;20.45;62.71;100349.28;5119833;28;850;-48
2021/06/19 00:11:42;;;;;;;;;;;;;;;20.57;62.46;100350.72;5119732;28;1095;-47
2021/06/19 00:14:07;;;;;;;;;;;;;;;20.45;63.15;100343.78;5119582;28;809;-49
2021/06/19 00:16:33;;;;;;;;;;;;;;;20.50;62.89;100329.84;5119464;28;1216;-49
2021/06/19 00:19:01;;;;;;;;;;;;;;;20.74;62.39;100339.84;5119968;28;866;-49
2021/06/19 00:21:26;;;;;;;;;;;;;;;20.62;62.78;100328.50;5109588;28;945;-51
2021/06/19 00:23:51;;;;;;;;;;;;;;;20.74;62.81;100328.00;5099161;28;767;-47
2021/06/19 00:26:17;;;;;;;;;;;;;;;20.91;62.16;100333.63;5098718;28;827;-48
2021/06/19 00:28:42;;;;;;;;;;;;;;;20.76;61.50;100326.56;5098762;28;1980;-48
2021/06/19 00:31:08;;;;;;;;;;;;;;;20.80;59.83;100324.78;5099064;28;815;-49
2021/06/19 00:33:33;;;;;;;;;;;;;;;20.80;59.79;100323.97;5099271;28;773;-47
2021/06/19 00:35:59;;;;;;;;;;;;;;;20.61;60.38;100324.13;5098643;28;779;-48
2021/06/19 00:38:24;;;;;;;;;;;;;;;20.93;60.44;100328.63;5099419;28;930;-47
2021/06/19 00:40:49;;;;;;;;;;;;;;;20.82;61.73;100325.28;5099466;28;803;-48
2021/06/19 00:43:15;;;;;;;;;;;;;;;20.57;61.73;100321.16;5098431;28;839;-71
2021/06/19 00:45:40;;;;;;;;;;;;;;;20.70;59.93;100326.97;5099005;28;863;-47
2021/06/19 00:48:07;;;;;;;;;;;;;;;20.65;59.13;100317.66;5115278;28;1982;-48
2021/06/19 00:50:32;;;;;;;;;;;;;;;20.54;58.95;100323.72;5118914;28;767;-48
2021/06/19 00:52:58;;;;;;;;;;;;;;;20.20;59.44;100319.50;5119172;28;747;-72
2021/06/19 00:55:23;;;;;;;;;;;;;;;20.18;62.30;100317.03;5119093;28;763;-45
2021/06/19 00:57:49;;;;;;;;;;;;;;;20.51;62.14;100314.13;5118663;28;795;-50
2021/06/19 01:00:14;;;;;;;;;;;;;;;20.52;62.38;100308.28;5101278;28;822;-48
2021/06/19 01:02:40;;;;;;;;;;;;;;;20.61;61.75;100313.06;5118464;28;1016;-47
2021/06/19 01:05:06;;;;;;;;;;;;;;;20.78;60.65;100304.94;5118576;28;826;-54
2021/06/19 01:07:31;;;;;;;;;;;;;;;20.62;60.39;100309.16;5119400;28;1909;-48
2021/06/19 01:09:57;;;;;;;;;;;;;;;20.59;60.03;100315.31;5118973;28;824;-48
2021/06/19 01:12:25;;;;;;;;;;;;;;;20.61;59.66;100308.34;5118578;28;1119;-65
2021/06/19 01:14:51;;;;;;;;;;;;;;;20.54;59.38;100302.44;5119221;28;735;-46
2021/06/19 01:17:17;;;;;;;;;;;;;;;20.74;58.48;100305.88;5118112;28;1201;-48
2021/06/19 01:19:43;;;;;;;;;;;;;;;20.35;59.57;100300.63;5118284;28;787;-48
2021/06/19 01:22:08;;;;;;;;;;;;;;;20.55;59.22;100298.53;5118447;28;759;-70
2021/06/19 01:24:34;;;;;;;;;;;;;;;20.60;60.30;100305.91;5118384;28;878;-52
2021/06/19 01:26:59;;;;;;;;;;;;;;;20.62;61.55;100300.88;5118211;28;1909;-71
2021/06/19 01:29:24;;;;;;;;;;;;;;;20.65;61.82;100297.47;5118876;28;828;-71
2021/06/19 01:31:51;;;;;;;;;;;;;;;20.47;61.59;100300.09;5118019;28;1005;-47
2021/06/19 01:34:16;;;;;;;;;;;;;;;20.66;59.87;100297.19;5100110;28;759;-54
2021/06/19 01:36:42;;;;;;;;;;;;;;;20.60;59.14;100301.19;5117853;28;794;-72
2021/06/19 01:39:07;;;;;;;;;;;;;;;20.68;58.50;100299.66;5118011;28;814;-47
2021/06/19 01:41:32;;;;;;;;;;;;;;;20.70;59.99;100300.16;5117835;28;798;-70
2021/06/19 01:44:01;;;;;;;;;;;;;;;20.53;61.70;100306.31;5118050;28;774;-48
2021/06/19 01:46:26;;;;;;;;;;;;;;;20.55;62.05;100300.50;5117805;28;1977;-50
2021/06/19 01:48:52;;;;;;;;;;;;;;;20.73;61.75;100298.72;5117795;28;850;-49
2021/06/19 01:51:17;;;;;;;;;;;;;;;20.91;60.56;100302.44;5117659;28;744;-67
2021/06/19 01:53:43;;;;;;;;;;;;;;;20.56;58.90;100310.41;5117876;28;739;-71
2021/06/19 01:56:09;;;;;;;;;;;;;;;20.49;61.67;100306.13;5117740;28;531;-52
2021/06/19 01:58:34;;;;;;;;;;;;;;;20.84;62.28;100311.97;5117785;28;727;-51
2021/06/19 02:01:00;;;;;;;;;;;;;;;20.92;62.83;100304.06;5116989;28;1179;-48
2021/06/19 02:03:25;;;;;;;;;;;;;;;21.11;62.33;100309.38;5117287;28;961;-71
2021/06/19 02:05:51;;;;;;;;;;;;;;;21.11;61.15;100301.91;5117659;28;758;-50
2021/06/19 02:08:17;;;;;;;;;;;;;;;21.07;59.39;100309.22;5118025;28;1909;-54
2021/06/19 02:10:44;;;;;;;;;;;;;;;20.87;58.08;100309.72;5099515;28;1432;-72
2021/06/19 02:13:10;;;;;;;;;;;;;;;20.85;55.43;100308.06;5100603;28;1090;-49
2021/06/19 02:15:39;;;;;;;;;;;;;;;20.69;55.37;100304.03;5097251;28;756;-49
2021/06/19 02:18:05;;;;;;;;;;;;;;;20.71;58.34;100312.84;5113271;28;1059;-70
2021/06/19 02:20:30;;;;;;;;;;;;;;;20.73;59.74;100304.25;5098974;28;791;-50
2021/06/19 02:22:56;;;;;;;;;;;;;;;20.81;58.91;100307.06;5117591;28;754;-60
2021/06/19 02:25:25;;;;;;;;;;;;;;;20.54;56.78;100304.38;5117581;28;821;-47
2021/06/19 02:27:53;;;;;;;;;;;;;;;20.50;54.24;100302.25;5117045;28;1914;-68
2021/06/19 02:30:21;;;;;;;;;;;;;;;20.45;57.29;100307.88;5117988;28;763;-70
2021/06/19 02:32:47;;;;;;;;;;;;;;;20.41;59.43;100306.88;5116661;28;953;-54
2021/06/19 02:35:12;;;;;;;;;;;;;;;20.75;59.44;100299.22;5117023;28;755;-49
2021/06/19 02:37:38;;;;;;;;;;;;;;;20.54;59.49;100307.13;5117448;28;844;-49
2021/06/19 02:40:04;;;;;;;;;;;;;;;20.46;59.08;100301.22;5099029;28;763;-48
2021/06/19 02:42:30;;;;;;;;;;;;;;;20.73;58.64;100304.25;5098522;28;1191;-46
2021/06/19 02:44:55;;;;;;;;;;;;;;;20.72;60.49;100311.72;5117230;28;740;-71
2021/06/19 02:47:21;;;;;;;;;;;;;;;20.66;61.29;100308.25;5095136;28;1973;-47
2021/06/19 02:49:46;;;;;;;;;;;;;;;20.63;60.14;100308.03;5096156;28;835;-51
2021/06/19 02:52:12;;;;;;;;;;;;;;;20.60;57.65;100311.44;5096517;28;806;-70
2021/06/19 02:54:40;;;;;;;;;;;;;;;20.54;54.28;100304.38;5096917;28;770;-47
2021/06/19 02:57:11;;;;;;;;;;;;;;;20.20;53.93;100303.75;5096422;28;767;-66
2021/06/19 02:59:37;;;;;;;;;;;;;;;20.50;56.35;100309.72;5096446;28;779;-66
2021/06/19 03:02:02;;;;;;;;;;;;;;;20.34;59.20;100314.75;5103900;28;1001;-48
2021/06/19 03:04:28;;;;;;;;;;;;;;;20.56;59.61;100315.94;5116469;28;909;-48
2021/06/19 03:06:53;;;;;;;;;;;;;;;20.42;60.66;100319.53;5116723;28;1975;-70
2021/06/19 03:09:19;;;;;;;;;;;;;;;20.51;60.91;100317.69;5116970;28;786;-48
2021/06/19 03:11:45;;;;;;;;;;;;;;;20.70;60.88;100321.44;5116434;28;1122;-47
2021/06/19 03:14:10;;;;;;;;;;;;;;;20.83;61.10;100315.88;5116437;28;772;-66
2021/06/19 03:16:35;;;;;;;;;;;;;;;20.77;60.10;100310.78;5116403;28;1220;-50
2021/06/19 03:19:02;;;;;;;;;;;;;;;20.73;57.77;100318.88;5116547;28;534;-45
2021/06/19 03:21:27;;;;;;;;;;;;;;;20.78;56.29;100313.22;5116595;28;779;-63
2021/06/19 03:23:52;;;;;;;;;;;;;;;20.66;59.41;100316.53;5116526;28;735;-46
2021/06/19 03:26:20;;;;;;;;;;;;;;;20.49;60.72;100310.84;5116795;28;767;-45
2021/06/19 03:28:46;;;;;;;;;;;;;;;20.52;59.97;100319.34;5116456;28;1905;-58
2021/06/19 03:31:11;;;;;;;;;;;;;;;20.49;58.94;100317.16;5116801;28;993;-64
2021/06/19 03:33:37;;;;;;;;;;;;;;;20.68;57.41;100319.00;5116264;28;797;-50
2021/06/19 03:36:02;;;;;;;;;;;;;;;20.49;59.09;100316.38;5116405;28;810;-48
2021/06/19 03:38:28;;;;;;;;;;;;;;;20.61;60.60;100316.63;5116713;28;863;-48
2021/06/19 03:40:53;;;;;;;;;;;;;;;20.64;61.45;100321.53;5116251;28;819;-50
2021/06/19 03:43:19;;;;;;;;;;;;;;;20.61;60.81;100319.41;5116249;28;851;-47
2021/06/19 03:45:44;;;;;;;;;;;;;;;20.59;58.33;100318.06;5116570;28;815;-47
2021/06/19 03:48:09;;;;;;;;;;;;;;;20.61;56.19;100313.06;5115699;28;1914;-65
2021/06/19 03:50:35;;;;;;;;;;;;;;;20.60;54.75;100322.47;5098600;28;1090;-49
2021/06/19 03:53:01;;;;;;;;;;;;;;;20.58;57.89;100319.19;5116468;28;775;-48
2021/06/19 03:55:27;;;;;;;;;;;;;;;20.57;59.63;100320.34;5115985;28;814;-63
2021/06/19 03:57:53;;;;;;;;;;;;;;;20.20;61.83;100316.75;5116502;28;747;-50
2021/06/19 04:00:19;;;;;;;;;;;;;;;20.34;62.75;100321.13;5116779;28;894;-46
2021/06/19 04:02:45;;;;;;;;;;;;;;;20.47;62.40;100313.91;5119698;28;962;-46
2021/06/19 04:05:10;;;;;;;;;;;;;;;20.60;60.68;100322.47;5120027;28;839;-48
2021/06/19 04:07:36;;;;;;;;;;;;;;;20.40;58.72;100319.06;5120051;28;1909;-68
2021/06/19 04:10:01;;;;;;;;;;;;;;;20.63;56.04;100316.31;5119963;28;775;-46
2021/06/19 04:12:27;;;;;;;;;;;;;;;20.49;59.00;100319.13;5109495;28;1209;-47
2021/06/19 04:14:52;;;;;;;;;;;;;;;20.44;60.83;100314.53;5099495;28;826;-44
2021/06/19 04:17:18;;;;;;;;;;;;;;;20.34;62.85;100325.81;5108331;28;1181;-47
2021/06/19 04:19:43;;;;;;;;;;;;;;;20.32;63.22;100317.03;5119834;28;855;-42
2021/06/19 04:22:09;;;;;;;;;;;;;;;20.83;60.16;100323.31;5119963;28;890;-44
2021/06/19 04:24:34;;;;;;;;;;;;;;;20.75;58.48;100319.38;5119400;28;859;-44
2021/06/19 04:27:00;;;;;;;;;;;;;;;20.65;58.06;100325.94;5120073;28;1966;-46
2021/06/19 04:29:28;;;;;;;;;;;;;;;20.54;60.60;100326.47;5102374;28;775;-44
2021/06/19 04:31:54;;;;;;;;;;;;;;;20.73;60.33;100326.34;5119038;28;973;-44
2021/06/19 04:34:19;;;;;;;;;;;;;;;20.74;59.92;100317.75;5119669;28;783;-45
2021/06/19 04:36:45;;;;;;;;;;;;;;;20.85;59.39;100323.84;5119874;28;827;-46
2021/06/19 04:39:10;;;;;;;;;;;;;;;20.81;59.03;100317.31;5119337;28;786;-44
2021/06/19 04:41:48;;;;;;;;;;;;;;;20.74;59.14;100323.28;5119638;28;959;-44
2021/06/19 04:46:45;;;;;;;;;;;;;;;20.72;61.51;100331.06;5101342;28;1976;-43
2021/06/19 04:49:10;;;;;;;;;;;;;;;21.08;60.39;100330.16;5119335;28;795;-43
2021/06/19 04:51:36;;;;;;;;;;;;;;;20.90;59.69;100332.03;5119301;28;835;-44
2021/06/19 04:54:01;;;;;;;;;;;;;;;20.92;57.84;100334.47;5119293;28;778;-44
2021/06/19 04:56:27;;;;;;;;;;;;;;;20.80;56.75;100332.25;5119041;28;787;-42
2021/06/19 04:58:52;;;;;;;;;;;;;;;20.26;59.15;100334.81;5119204;28;814;-43
2021/06/19 05:01:18;;;;;;;;;;;;;;;20.56;60.44;100333.31;5100863;28;962;-50
2021/06/19 05:03:43;;;;;;;;;;;;;;;20.63;60.92;100336.47;5119092;28;779;-65
2021/06/19 05:06:08;;;;;;;;;;;;;;;20.69;59.94;100337.19;5119024;28;806;-54
2021/06/19 05:08:34;;;;;;;;;;;;;;;20.85;57.79;100335.72;5098781;28;1909;-42
2021/06/19 05:10:59;;;;;;;;;;;;;;;20.79;57.03;100338.91;5119008;28;751;-42
2021/06/19 05:13:25;;;;;;;;;;;;;;;20.67;59.36;100339.44;5100291;28;1134;-42
2021/06/19 05:15:50;;;;;;;;;;;;;;;20.84;60.34;100344.31;5098095;28;1128;-71
2021/06/19 05:18:16;;;;;;;;;;;;;;;20.72;60.38;100342.13;5116091;28;958;-42
2021/06/19 05:20:41;;;;;;;;;;;;;;;20.85;57.01;100348.72;5118813;28;748;-61
2021/06/19 05:23:10;;;;;;;;;;;;;;;20.57;55.97;100339.69;5118497;28;748;-64
2021/06/19 05:25:37;;;;;;;;;;;;;;;20.63;58.34;100349.47;5118179;28;829;-44
2021/06/19 05:28:02;;;;;;;;;;;;;;;20.65;59.68;100353.56;5118595;28;1905;-43
2021/06/19 05:30:28;;;;;;;;;;;;;;;20.48;60.48;100347.88;5100230;28;1266;-44
2021/06/19 05:32:53;;;;;;;;;;;;;;;20.49;60.63;100352.28;5099586;28;1511;-43
2021/06/19 05:35:19;;;;;;;;;;;;;;;20.74;60.36;100350.09;5118125;28;807;-48
2021/06/19 05:37:44;;;;;;;;;;;;;;;20.67;60.88;100356.84;5118353;28;850;-45
2021/06/19 05:40:10;;;;;;;;;;;;;;;20.76;59.21;100354.19;5118246;28;758;-43
2021/06/19 05:42:35;;;;;;;;;;;;;;;20.50;59.37;100357.47;5118252;28;815;-43
2021/06/19 05:45:01;;;;;;;;;;;;;;;20.70;60.31;100355.41;5118104;28;791;-68
2021/06/19 05:47:26;;;;;;;;;;;;;;;20.68;61.24;100363.22;5117287;28;1918;-71
2021/06/19 05:49:51;;;;;;;;;;;;;;;20.80;60.98;100360.72;5118772;28;747;-43
2021/06/19 05:52:18;;;;;;;;;;;;;;;20.84;60.78;100366.41;5118280;28;759;-43
2021/06/19 05:54:44;;;;;;;;;;;;;;;20.64;60.91;100362.97;5118024;28;767;-43
2021/06/19 05:57:09;;;;;;;;;;;;;;;20.72;60.02;100363.38;5118104;28;755;-42
2021/06/19 05:59:37;;;;;;;;;;;;;;;20.67;59.67;100356.84;5117758;28;746;-71
2021/06/19 06:02:03;;;;;;;;;;;;;;;20.37;62.29;100366.63;5117053;28;962;-42
2021/06/19 06:04:30;;;;;;;;;;;;;;;20.39;63.46;100356.06;5117936;28;802;-42
2021/06/19 06:06:55;;;;;;;;;;;;;;;20.66;61.39;100354.38;5117408;28;1905;-42
2021/06/19 06:09:20;;;;;;;;;;;;;;;20.74;58.79;100361.94;5117372;28;936;-71
2021/06/19 06:11:46;;;;;;;;;;;;;;;20.65;57.63;100366.53;5117559;28;1162;-70
2021/06/19 06:14:12;;;;;;;;;;;;;;;20.62;60.46;100361.63;5117566;28;501;-43
2021/06/19 06:16:40;;;;;;;;;;;;;;;20.43;62.41;100365.38;5116432;28;1128;-44
2021/06/19 06:19:05;;;;;;;;;;;;;;;20.96;60.85;100368.66;5117308;28;823;-67
2021/06/19 06:21:31;;;;;;;;;;;;;;;20.68;59.99;100363.22;5117647;28;860;-42
2021/06/19 06:23:56;;;;;;;;;;;;;;;20.74;57.91;100364.72;5116598;28;764;-56
2021/06/19 06:26:22;;;;;;;;;;;;;;;20.58;56.02;100363.38;5117607;28;744;-58
2021/06/19 06:28:50;;;;;;;;;;;;;;;20.60;58.60;100364.72;5117216;28;1910;-44
2021/06/19 06:31:15;;;;;;;;;;;;;;;20.49;60.92;100369.66;5116590;28;1012;-72
2021/06/19 06:33:41;;;;;;;;;;;;;;;20.68;61.45;100369.53;5098373;28;804;-69
2021/06/19 06:36:06;;;;;;;;;;;;;;;20.90;61.00;100359.66;5098933;28;771;-69
2021/06/19 06:38:32;;;;;;;;;;;;;;;20.84;60.74;100363.66;5116718;28;851;-44
2021/06/19 06:40:57;;;;;;;;;;;;;;;20.82;60.64;100360.41;5116840;28;755;-49
2021/06/19 06:43:22;;;;;;;;;;;;;;;20.78;60.68;100368.50;5117089;28;787;-49
2021/06/19 06:45:48;;;;;;;;;;;;;;;20.75;60.55;100369.13;5116636;28;719;-43
2021/06/19 06:48:13;;;;;;;;;;;;;;;20.69;60.93;100364.81;5116018;28;1974;-65
2021/06/19 06:50:39;;;;;;;;;;;;;;;20.75;60.47;100369.13;5116930;28;660;-42
2021/06/19 06:53:04;;;;;;;;;;;;;;;20.86;60.12;100372.47;5116659;28;872;-70
2021/06/19 06:55:30;;;;;;;;;;;;;;;20.90;59.99;100369.88;5116527;28;751;-42
2021/06/19 06:57:55;;;;;;;;;;;;;;;20.92;60.09;100371.19;5116667;28;831;-44
2021/06/19 07:00:20;;;;;;;;;;;;;;;20.73;61.20;100368.59;5116627;28;775;-42
2021/06/19 07:02:46;;;;;;;;;;;;;;;20.49;62.87;100372.41;5095030;28;1117;-70
2021/06/19 07:05:11;;;;;;;;;;;;;;;20.83;62.55;100371.13;5096349;28;747;-43
2021/06/19 07:07:37;;;;;;;;;;;;;;;20.99;60.53;100371.56;5095687;28;1918;-45
2021/06/19 07:10:03;;;;;;;;;;;;;;;20.84;58.45;100366.41;5096223;28;803;-44
2021/06/19 07:12:29;;;;;;;;;;;;;;;20.74;56.39;100363.91;5096179;28;1114;-44
2021/06/19 07:14:54;;;;;;;;;;;;;;;20.72;55.11;100363.38;5095933;28;819;-43
2021/06/19 07:17:20;;;;;;;;;;;;;;;20.68;58.52;100363.22;5105738;28;1043;-47
2021/06/19 07:19:45;;;;;;;;;;;;;;;20.81;60.59;100356.00;5116641;28;795;-45
2021/06/19 07:22:10;;;;;;;;;;;;;;;20.79;61.14;100353.56;5116329;28;744;-46
2021/06/19 07:24:36;;;;;;;;;;;;;;;20.81;60.19;100351.28;5116476;28;760;-47
2021/06/19 07:27:02;;;;;;;;;;;;;;;20.65;57.74;100356.31;5116292;28;1979;-45
2021/06/19 07:29:27;;;;;;;;;;;;;;;20.56;56.15;100358.19;5116082;28;787;-66
2021/06/19 07:31:52;;;;;;;;;;;;;;;20.58;57.97;100357.88;5115969;28;1178;-69
2021/06/19 07:34:18;;;;;;;;;;;;;;;20.76;60.07;100356.94;5116500;28;795;-44
2021/06/19 07:36:45;;;;;;;;;;;;;;;20.88;60.87;100350.03;5118894;28;728;-43
2021/06/19 07:39:12;;;;;;;;;;;;;;;20.45;62.58;100354.81;5120346;28;787;-47
2021/06/19 07:41:41;;;;;;;;;;;;;;;20.79;59.47;100355.47;5120491;28;750;-62
2021/06/19 07:44:06;;;;;;;;;;;;;;;20.65;56.26;100353.56;5119919;28;806;-69
2021/06/19 07:46:32;;;;;;;;;;;;;;;20.75;56.16;100354.47;5120286;28;969;-68
2021/06/19 07:48:57;;;;;;;;;;;;;;;20.66;57.56;100357.13;5120125;28;1909;-44
2021/06/19 07:51:23;;;;;;;;;;;;;;;20.71;57.89;100357.06;5119941;28;775;-70
2021/06/19 07:53:48;;;;;;;;;;;;;;;20.69;58.71;100359.28;5118749;28;1135;-70
2021/06/19 07:56:13;;;;;;;;;;;;;;;20.61;59.15;100365.56;5120114;28;822;-57
2021/06/19 07:58:39;;;;;;;;;;;;;;;20.70;59.42;100369.22;5119365;28;495;-68
2021/06/19 08:01:04;;;;;;;;;;;;;;;20.94;58.72;100370.88;5120374;28;818;-42
2021/06/19 08:03:30;;;;;;;;;;;;;;;20.63;59.01;100371.56;5119642;28;946;-42
2021/06/19 08:05:55;;;;;;;;;;;;;;;20.64;60.03;100373.22;5119855;28;831;-70
2021/06/19 08:08:21;;;;;;;;;;;;;;;20.81;59.68;100378.09;5119363;28;1985;-42
2021/06/19 08:10:48;;;;;;;;;;;;;;;20.91;59.30;100374.28;5119818;28;731;-52
2021/06/19 08:13:14;;;;;;;;;;;;;;;20.94;59.28;100377.22;5102758;28;1159;-42
2021/06/19 08:15:40;;;;;;;;;;;;;;;20.96;59.21;100385.22;5099646;28;783;-42
2021/06/19 08:18:05;;;;;;;;;;;;;;;20.84;59.47;100383.81;5115321;28;1177;-70
2021/06/19 08:20:31;;;;;;;;;;;;;;;20.80;59.31;100382.81;5119670;28;763;-42
2021/06/19 08:22:57;;;;;;;;;;;;;;;20.89;59.17;100390.34;5118980;28;857;-45
2021/06/19 08:25:22;;;;;;;;;;;;;;;20.88;59.23;100394.25;5119436;28;845;-68
2021/06/19 08:27:48;;;;;;;;;;;;;;;20.66;59.76;100388.34;5119324;28;1975;-69
2021/06/19 08:30:14;;;;;;;;;;;;;;;20.69;59.65;100392.44;5119108;28;766;-41
2021/06/19 08:32:39;;;;;;;;;;;;;;;20.76;60.24;100395.63;5118688;28;962;-68
2021/06/19 08:35:05;;;;;;;;;;;;;;;20.76;58.90;100392.03;5119420;28;735;-42
2021/06/19 08:37:31;;;;;;;;;;;;;;;20.70;57.31;100390.53;5119232;28;850;-69
2021/06/19 08:39:57;;;;;;;;;;;;;;;20.67;58.43;100390.00;5100796;28;1085;-51
2021/06/19 08:42:24;;;;;;;;;;;;;;;20.78;59.33;100389.78;5119190;28;779;-42
2021/06/19 08:44:50;;;;;;;;;;;;;;;20.86;58.67;100389.03;5100418;28;752;-44
2021/06/19 08:47:15;;;;;;;;;;;;;;;20.63;58.33;100388.16;5099684;28;1901;-42
2021/06/19 08:49:41;;;;;;;;;;;;;;;20.67;56.91;100384.47;5100155;28;887;-42
2021/06/19 08:52:07;;;;;;;;;;;;;;;20.60;57.03;100389.56;5118969;28;721;-57
2021/06/19 08:54:38;;;;;;;;;;;;;;;20.58;59.41;100386.31;5119312;28;814;-58
2021/06/19 08:57:18;;;;;;;;;;;;;;;20.62;60.23;100384.59;5118847;28;787;-43
2021/06/19 08:59:47;;;;;;;;;;;;;;;20.85;59.56;100395.69;5118390;28;870;-43
2021/06/19 09:02:13;;;;;;;;;;;;;;;20.67;59.28;100400.22;5118535;28;946;-43
2021/06/19 09:04:59;;;;;;;;;;;;;;;20.38;59.46;100395.03;5118784;28;722;-66
2021/06/19 09:07:44;;;;;;;;;;;;;;;20.16;63.42;100386.38;5119006;28;1901;-45
2021/06/19 09:10:15;;;;;;;;;;;;;;;20.42;63.07;100394.13;5118477;28;838;-47
2021/06/19 09:12:52;;;;;;;;;;;;;;;20.52;62.61;100388.38;5118070;28;1083;-68
2021/06/19 09:15:18;;;;;;;;;;;;;;;20.64;61.55;100395.31;5118773;28;783;-43
2021/06/19 09:18:04;;;;;;;;;;;;;;;20.79;60.27;100392.25;5117964;28;1200;-70
2021/06/19 09:20:33;;;;;;;;;;;;;;;20.63;59.99;100394.47;5118212;28;748;-43
2021/06/19 09:23:09;;;;;;;;;;;;;;;20.77;59.13;100388.16;5100245;28;1392;-69
2021/06/19 09:25:35;;;;;;;;;;;;;;;20.72;59.92;100386.31;5118301;28;827;-43
2021/06/19 09:28:00;;;;;;;;;;;;;;;20.91;60.43;100390.88;5118078;28;1978;-43
2021/06/19 09:30:26;;;;;;;;;;;;;;;20.70;62.25;100394.09;5118271;28;811;-43
2021/06/19 09:32:56;;;;;;;;;;;;;;;20.70;63.03;100388.56;5117815;28;1020;-45
2021/06/19 09:35:25;;;;;;;;;;;;;;;21.01;61.21;100388.69;5117962;28;746;-45
2021/06/19 09:37:52;;;;;;;;;;;;;;;20.96;60.26;100379.69;5118142;28;545;-44
2021/06/19 09:40:21;;;;;;;;;;;;;;;20.96;60.34;100383.28;5118205;28;786;-56
2021/06/19 09:42:47;;;;;;;;;;;;;;;21.00;61.11;100381.50;5117779;28;826;-49
2021/06/19 09:45:30;;;;;;;;;;;;;;;21.02;62.06;100392.25;5118308;28;797;-58
2021/06/19 09:47:55;;;;;;;;;;;;;;;20.92;61.83;100389.75;5117795;28;1910;-67
2021/06/19 09:50:21;;;;;;;;;;;;;;;21.03;59.81;100391.94;5099318;28;784;-44
2021/06/19 09:52:49;;;;;;;;;;;;;;;20.96;58.70;100385.22;5117611;28;531;-69
2021/06/19 09:55:15;;;;;;;;;;;;;;;20.99;57.78;100379.88;5117962;28;751;-43
2021/06/19 09:57:44;;;;;;;;;;;;;;;20.98;57.41;100383.75;5117532;28;787;-44
2021/06/19 10:00:19;;;;;;;;;;;;;;;20.92;57.32;100378.69;5117316;28;794;-44
2021/06/19 10:02:45;;;;;;;;;;;;;;;20.99;56.99;100385.41;5117845;28;994;-43
2021/06/19 10:05:10;;;;;;;;;;;;;;;20.91;58.75;100383.38;5117290;28;791;-43
2021/06/19 10:07:36;;;;;;;;;;;;;;;20.34;62.18;100392.06;5117441;28;1918;-44
2021/06/19 10:10:03;;;;;;;;;;;;;;;20.73;61.20;100393.47;5117508;28;759;-44
2021/06/19 10:12:29;;;;;;;;;;;;;;;20.68;60.46;100396.34;5106455;28;1091;-67
2021/06/19 10:14:59;;;;;;;;;;;;;;;20.76;58.48;100403.91;5097165;28;843;-44
2021/06/19 10:17:27;;;;;;;;;;;;;;;20.69;55.42;100406.25;5107642;28;1031;-44
2021/06/19 10:19:53;;;;;;;;;;;;;;;20.63;54.31;100401.97;5116901;28;827;-44
2021/06/19 10:22:19;;;;;;;;;;;;;;;20.54;57.25;100401.03;5099050;28;886;-45
2021/06/19 10:24:45;;;;;;;;;;;;;;;20.66;59.68;100399.41;5099216;28;815;-43
2021/06/19 10:27:14;;;;;;;;;;;;;;;20.85;60.47;100390.97;5098911;28;1913;-43
2021/06/19 10:29:40;;;;;;;;;;;;;;;20.91;60.18;100393.63;5117533;28;767;-70
2021/06/19 10:32:05;;;;;;;;;;;;;;;20.98;58.11;100383.75;5098348;28;993;-69
2021/06/19 10:34:31;;;;;;;;;;;;;;;20.84;56.43;100385.75;5116944;28;980;-54
2021/06/19 10:37:02;;;;;;;;;;;;;;;20.68;54.15;100374.25;5098968;28;763;-46
2021/06/19 10:39:31;;;;;;;;;;;;;;;20.65;56.70;100385.88;5099283;28;759;-46
2021/06/19 10:41:56;;;;;;;;;;;;;;;20.61;59.79;100379.38;5116363;28;779;-71
2021/06/19 10:44:40;;;;;;;;;;;;;;;20.87;60.25;100381.56;5117828;28;775;-67
2021/06/19 10:47:06;;;;;;;;;;;;;;;20.88;59.81;100383.22;5116538;28;1914;-70
2021/06/19 10:49:31;;;;;;;;;;;;;;;20.84;58.42;100381.03;5098484;28;756;-43
2021/06/19 10:52:15;;;;;;;;;;;;;;;20.60;56.38;100386.00;5116755;28;802;-56
2021/06/19 10:54:45;;;;;;;;;;;;;;;20.60;55.14;100395.09;5116926;28;815;-44
2021/06/19 10:57:11;;;;;;;;;;;;;;;20.55;56.84;100383.34;5098801;28;1333;-43
2021/06/19 10:59:36;;;;;;;;;;;;;;;20.62;57.60;100392.88;5098717;28;1113;-58
2021/06/19 11:02:02;;;;;;;;;;;;;;;20.68;58.13;100390.84;5098047;28;994;-57
2021/06/19 11:04:40;;;;;;;;;;;;;;;20.66;58.53;100382.00;5116777;28;819;-44
2021/06/19 11:07:09;;;;;;;;;;;;;;;20.65;58.11;100383.13;5116765;28;1906;-69
2021/06/19 11:09:36;;;;;;;;;;;;;;;20.52;59.80;100384.78;5118594;28;787;-70
2021/06/19 11:12:02;;;;;;;;;;;;;;;20.64;59.70;100379.53;5123615;28;1099;-43
2021/06/19 11:14:40;;;;;;;;;;;;;;;20.75;59.53;100374.66;5123571;28;847;-43
2021/06/19 11:17:06;;;;;;;;;;;;;;;20.75;59.67;100371.88;5123035;28;1110;-63
2021/06/19 11:19:35;;;;;;;;;;;;;;;20.81;59.63;100367.84;5123777;28;704;-68
2021/06/19 11:22:19;;;;;;;;;;;;;;;20.96;59.42;100374.97;5123339;28;838;-43
2021/06/19 11:25:04;;;;;;;;;;;;;;;20.75;60.31;100377.41;5123405;28;842;-71
2021/06/19 11:27:55;;;;;;;;;;;;;;;20.98;59.76;100377.44;5123306;28;1902;-43
2021/06/19 11:30:33;;;;;;;;;;;;;;;20.91;60.06;100388.09;5123314;28;874;-43
2021/06/19 11:33:19;;;;;;;;;;;;;;;21.02;59.67;100384.75;5122627;28;997;-43
2021/06/19 11:35:45;;;;;;;;;;;;;;;21.09;59.58;100384.34;5122766;28;1051;-66
2021/06/19 11:38:10;;;;;;;;;;;;;;;21.06;59.47;100384.97;5122144;28;927;-47
2021/06/19 11:40:36;;;;;;;;;;;;;;;20.98;60.03;100388.47;5104822;28;756;-66
2021/06/19 11:43:02;;;;;;;;;;;;;;;20.95;59.91;100387.16;5123108;28;742;-43
2021/06/19 11:45:27;;;;;;;;;;;;;;;21.14;59.27;100397.22;5123079;28;783;-44
2021/06/19 11:48:06;;;;;;;;;;;;;;;21.15;59.42;100393.31;5122638;28;1918;-44
2021/06/19 11:50:31;;;;;;;;;;;;;;;20.97;60.01;100397.91;5123029;28;759;-61
2021/06/19 11:53:17;;;;;;;;;;;;;;;20.97;60.24;100392.38;5123072;28;786;-47
2021/06/19 11:55:42;;;;;;;;;;;;;;;21.06;58.35;100390.50;5122470;28;1032;-66
2021/06/19 11:58:08;;;;;;;;;;;;;;;20.97;59.33;100392.38;5123512;28;800;-45
2021/06/19 12:00:33;;;;;;;;;;;;;;;20.93;59.66;100386.66;5104934;28;1484;-43
2021/06/19 12:03:00;;;;;;;;;;;;;;;21.08;59.51;100387.41;5100159;28;1340;-42
2021/06/19 12:05:26;;;;;;;;;;;;;;;21.05;59.57;100390.81;5102743;28;779;-56
2021/06/19 12:07:53;;;;;;;;;;;;;;;21.09;59.47;100383.53;5101679;28;1901;-66
2021/06/19 12:10:22;;;;;;;;;;;;;;;20.65;60.66;100386.72;5102568;28;822;-44
2021/06/19 12:12:55;;;;;;;;;;;;;;;21.11;59.73;100384.84;5102302;28;1143;-43
2021/06/19 12:15:21;;;;;;;;;;;;;;;21.00;60.09;100389.00;5102471;28;497;-43
2021/06/19 12:17:46;;;;;;;;;;;;;;;21.11;59.53;100392.31;5097055;28;1008;-44
2021/06/19 12:20:18;;;;;;;;;;;;;;;20.96;59.98;100388.00;5121699;28;792;-44
2021/06/19 12:22:44;;;;;;;;;;;;;;;21.07;59.76;100392.13;5118880;28;811;-43
2021/06/19 12:25:10;;;;;;;;;;;;;;;21.27;59.39;100387.25;5119174;28;847;-61
2021/06/19 12:27:35;;;;;;;;;;;;;;;21.17;59.61;100374.47;5119381;28;1910;-44
2021/06/19 12:30:04;;;;;;;;;;;;;;;21.05;60.34;100383.31;5119487;28;747;-43
2021/06/19 12:32:36;;;;;;;;;;;;;;;21.43;59.18;100384.88;5118277;28;961;-70
2021/06/19 12:35:16;;;;;;;;;;;;;;;21.23;60.27;100380.72;5119397;28;779;-43
2021/06/19 12:37:42;;;;;;;;;;;;;;;21.15;60.45;100383.09;5119288;28;819;-53
2021/06/19 12:40:09;;;;;;;;;;;;;;;21.28;60.08;100378.63;5100541;28;1122;-43
2021/06/19 12:42:35;;;;;;;;;;;;;;;21.32;60.12;100373.25;5119027;28;839;-43
2021/06/19 12:45:04;;;;;;;;;;;;;;;21.34;60.06;100371.00;5119281;28;839;-43
2021/06/19 12:47:33;;;;;;;;;;;;;;;21.15;60.99;100371.19;5113213;28;1905;-43
2021/06/19 12:49:59;;;;;;;;;;;;;;;21.31;60.47;100372.47;5098903;28;797;-44
2021/06/19 12:52:24;;;;;;;;;;;;;;;21.37;60.30;100378.69;5098423;28;744;-46
2021/06/19 12:55:09;;;;;;;;;;;;;;;21.49;59.97;100370.63;5098228;28;760;-67
2021/06/19 12:57:34;;;;;;;;;;;;;;;21.22;59.74;100379.88;5098656;28;740;-43